Terminal Aerodrome Forecast
Issued by NWS Twin Cities, MN

Home | Current Version | Previous Version | Graphics & Text | Print | Product List | Glossary On
Versions: 1 2 3 4 5 6 7 8 9 10 11 12 13 14 15 16 17
000
FTUS43 KMPX 281412 AAA
TAFEAU
TAF AMD
KEAU 281412Z 2814/2912 15010KT 5SM HZ OVC009
     FM281800 15013KT P6SM OVC011
     FM282200 15008KT P6SM OVC018
     FM290000 14005KT P6SM OVC009 PROB30 2901/2906 -FZDZSN
     FM290800 30008KT P6SM OVC007=

USA.gov is the U.S. government's official web portal to all federal, state and local government web resources and services.